ENZV/SVG METAR and TAF weather

Enter ICAO airport designator
Station Type Date Time Source
ENZV METAR 2020/11/27 14:20 UTC NOAA

ENZV 271420Z 12005KT CAVOK 05/01 Q1021 NOSIG


Station Type Date Time Source
ENZV Decoded METAR 2020/11/27 14:20 UTC NOAA

Stavanger / Sola, Norway (ENZV) 58-53N 005-38E 9M
Nov 27, 2020 - 09:20 AM EST / 2020.11.27 1420 UTC
Wind: from the ESE (120 degrees) at 6 MPH (5 KT):0
Visibility: greater than 7 mile(s):0
Temperature: 41 F (5 C)
Dew Point: 33 F (1 C)
Relative Humidity: 75%
Pressure (altimeter): 30.15 in. Hg (1021 hPa)
ob: ENZV 271420Z 12005KT CAVOK 05/01 Q1021 NOSIG
cycle: 14

Station Type Date Time Source
ENZV TAF 2020/11/27 12:57 UTC NOAA

TAF ENZV 271100Z 2712/2812 12005KT 9999 FEW020

Example: see airport list